EDT,Max TemperatureF,Mean TemperatureF,Min TemperatureF,Max Dew PointF,MeanDew PointF,Min DewpointF,Max Humidity, Mean Humidity, Min Humidity, Max Sea Level PressureIn, Mean Sea Level PressureIn, Min Sea Level PressureIn, Max VisibilityMiles, Mean VisibilityMiles, Min VisibilityMiles, Max Wind SpeedMPH, Mean Wind SpeedMPH, Max Gust SpeedMPH,PrecipitationIn, CloudCover, Events, WindDirDegrees
2012-3-1,42,38,35,39,37,36,100,94,81,29.96,29.78,29.67,10,7,2,9,5,,0.00,8,Rain,44
2012-3-2,41,37,33,39,34,28,100,90,75,30.12,30.00,29.79,10,8,2,13,4,25,0.06,8,Rain,117
2012-3-3,57,48,39,46,34,14,100,73,21,29.79,29.61,29.47,15,7,0,20,5,33,0.04,5,Fog-Rain,314
2012-3-4,42,37,32,27,22,18,75,53,36,29.77,29.69,29.60,10,10,10,15,8,21,0.00,4,,284
2012-3-5,44,35,26,27,15,5,75,51,25,30.39,30.02,29.77,20,11,10,16,7,24,0.00,2,,306
2012-3-6,42,32,21,23,12,7,74,47,24,30.63,30.53,30.41,10,10,10,10,6,17,0.00,0,,277
2012-3-7,62,43,24,43,29,23,93,67,27,30.58,30.46,30.31,10,10,7,18,4,25,0.00,1,,220
2012-3-8,69,55,41,48,45,41,100,69,46,30.31,30.11,29.82,15,10,10,25,8,37,0.00,4,,216
2012-3-9,62,48,35,52,28,16,93,59,27,30.28,30.08,29.83,10,10,3,24,12,34,0.07,6,Rain,313
2012-3-10,41,32,24,23,14,7,93,51,31,30.56,30.43,30.29,10,10,10,15,8,23,0.00,2,,324
2012-3-11,60,42,23,30,24,18,93,63,25,30.53,30.45,30.33,20,11,10,16,3,29,0.00,0,,215
2012-3-12,71,52,32,41,32,28,93,61,20,30.36,30.27,30.12,20,10,10,12,3,22,0.00,3,,209
2012-3-13,73,60,48,55,48,39,100,77,47,30.12,30.03,29.92,20,10,7,20,3,23,0.02,5,Rain,238
2012-3-14,69,56,41,52,37,12,100,66,11,30.19,30.07,29.98,10,10,10,17,3,28,0.00,0,,296
2012-3-15,50,44,37,43,39,23,100,85,40,30.33,30.26,30.19,10,8,2,12,3,18,0.00,5,,78
2012-3-16,51,44,37,46,43,37,100,96,82,30.29,30.21,30.13,10,3,0,6,2,,0.00,8,Fog-Rain,138
2012-3-17,64,50,37,52,41,37,100,90,52,30.38,30.27,30.19,15,4,0,14,1,17,0.00,6,Fog,153
2012-3-18,64,54,44,52,46,43,100,89,59,30.38,30.32,30.20,10,6,1,13,3,,0.00,6,,223
2012-3-19,77,59,41,63,47,41,100,81,39,30.23,30.19,30.14,10,6,0,12,2,16,0.00,2,Fog,218
2012-3-20,73,60,46,59,54,45,100,84,57,30.34,30.28,30.23,10,7,1,13,2,17,0.00,6,,148
2012-3-21,68,59,50,61,57,50,100,94,64,30.37,30.31,30.28,10,3,0,9,1,,0.00,8,Fog,147
2012-3-22,77,64,51,61,56,52,100,90,50,30.29,30.21,30.08,10,4,0,12,1,21,0.00,6,Fog,256
2012-3-23,77,62,48,59,50,37,100,81,39,30.11,30.07,30.05,10,5,0,15,2,20,0.00,5,Fog,121
2012-3-24,64,55,46,48,36,18,93,59,22,30.08,30.04,29.99,20,11,10,20,3,22,0.00,7,,110
2012-3-25,55,48,41,45,41,36,100,84,62,29.98,29.86,29.75,10,8,2,9,6,,0.01,7,Rain,47
2012-3-26,53,43,33,45,28,3,100,64,20,30.13,29.84,29.70,20,11,7,23,5,43,0.00,1,,340
2012-3-27,51,40,28,27,5,-4,75,31,11,30.30,30.20,30.14,15,11,10,15,9,26,0.00,1,,339
2012-3-28,68,50,32,50,32,21,82,60,38,30.15,29.88,29.56,10,10,7,17,3,23,0.00,4,Rain,230
2012-3-29,60,51,42,48,37,27,71,57,38,30.03,29.76,29.59,15,10,10,17,10,32,0.00,7,,330
2012-3-30,57,47,37,41,25,16,100,51,23,30.10,30.02,29.90,10,10,4,14,8,23,0.01,4,Rain,327
2012-3-31,42,40,37,41,38,37,100,94,81,29.99,29.91,29.87,10,5,1,12,4,16,0.46,8,Rain,62